createdAt,value
2023-03-02T00:01:56.950Z,0.30
2023-03-02T00:04:28.686Z,0.30
2023-03-02T00:07:00.982Z,0.30
2023-03-02T00:09:29.705Z,0.30
2023-03-02T00:11:59.092Z,0.30
2023-03-02T00:14:27.663Z,0.20
2023-03-02T00:16:57.701Z,0.30
2023-03-02T00:19:26.118Z,0.30
2023-03-02T00:21:54.806Z,0.30
2023-03-02T00:24:23.400Z,0.30
2023-03-02T00:26:51.648Z,0.30
2023-03-02T00:29:19.829Z,0.30
2023-03-02T00:31:48.232Z,0.20
2023-03-02T00:34:18.045Z,0.30
2023-03-02T00:36:49.548Z,0.30
2023-03-02T00:39:20.265Z,0.30
2023-03-02T00:41:49.446Z,0.30
2023-03-02T00:44:18.670Z,0.30
2023-03-02T00:46:47.705Z,0.30
2023-03-02T00:49:17.546Z,0.30
2023-03-02T00:51:46.147Z,0.20
2023-03-02T00:54:14.993Z,0.10
2023-03-02T00:56:44.127Z,-0.10
2023-03-02T00:59:26.162Z,-0.20
2023-03-02T01:01:58.421Z,-0.40
2023-03-02T01:04:42.645Z,-0.30
2023-03-02T01:07:13.147Z,-0.20
2023-03-02T01:09:42.886Z,-0.20
2023-03-02T01:12:14.401Z,-0.20
2023-03-02T01:14:47.092Z,-0.10
2023-03-02T01:17:16.020Z,0.00
2023-03-02T01:19:45.946Z,0.00
2023-03-02T01:22:17.303Z,-0.10
2023-03-02T01:24:45.713Z,-0.10
2023-03-02T01:27:17.066Z,-0.10
2023-03-02T01:29:45.714Z,-0.10
2023-03-02T01:32:14.045Z,-0.10
2023-03-02T01:34:43.262Z,-0.20
2023-03-02T01:37:13.306Z,-0.20
2023-03-02T01:39:41.713Z,-0.40
2023-03-02T01:42:36.058Z,-0.40
2023-03-02T01:45:04.736Z,-0.60
2023-03-02T01:47:41.118Z,-0.70
2023-03-02T01:50:30.166Z,-0.60
2023-03-02T01:53:17.391Z,-0.60
2023-03-02T01:55:56.537Z,-0.70
2023-03-02T01:58:27.240Z,-0.90
2023-03-02T02:00:57.840Z,-1.10
2023-03-02T02:03:35.560Z,-1.10
2023-03-02T02:06:13.365Z,-1.10
2023-03-02T02:08:43.191Z,-1.30
2023-03-02T02:11:12.128Z,-1.30
2023-03-02T02:13:40.550Z,-1.20
2023-03-02T02:16:14.754Z,-1.10
2023-03-02T02:18:44.126Z,-1.10
2023-03-02T02:21:13.545Z,-1.20
2023-03-02T02:23:51.671Z,-1.10
2023-03-02T02:26:32.907Z,-1.10
2023-03-02T02:29:04.311Z,-1.10
2023-03-02T02:31:37.515Z,-1.30
2023-03-02T02:34:12.384Z,-1.20
2023-03-02T02:37:18.369Z,-1.20
2023-03-02T02:39:50.037Z,-1.10
2023-03-02T02:42:22.782Z,-0.80
2023-03-02T02:45:01.870Z,-0.70
2023-03-02T02:47:33.547Z,-0.50
2023-03-02T02:50:02.090Z,-0.40
2023-03-02T02:52:32.644Z,-0.50
2023-03-02T02:55:01.603Z,-0.50
2023-03-02T02:57:55.547Z,-0.60
2023-03-02T03:00:26.164Z,-0.70
2023-03-02T03:03:03.696Z,-0.60
2023-03-02T03:05:32.456Z,-0.70
2023-03-02T03:08:54.213Z,-0.70
2023-03-02T03:11:27.721Z,-0.70
2023-03-02T03:28:07.400Z,-0.70
2023-03-02T03:30:36.853Z,-0.70
2023-03-02T03:33:06.170Z,-0.70
2023-03-02T03:35:36.935Z,-0.90
2023-03-02T03:38:07.674Z,-0.90
2023-03-02T03:40:36.263Z,-1.00
2023-03-02T03:43:06.186Z,-1.00
2023-03-02T03:45:36.389Z,-1.00
2023-03-02T03:48:07.876Z,-1.10
2023-03-02T03:50:39.818Z,-1.20
2023-03-02T03:53:08.116Z,-1.20
2023-03-02T03:55:36.818Z,-1.20
2023-03-02T03:58:07.150Z,-1.20
2023-03-02T04:00:35.617Z,-1.30
2023-03-02T04:03:05.077Z,-1.40
2023-03-02T04:05:34.404Z,-1.40
2023-03-02T04:08:03.594Z,-1.40
2023-03-02T04:10:32.521Z,-1.30
2023-03-02T04:13:04.400Z,-1.30
2023-03-02T04:15:37.976Z,-1.50
2023-03-02T04:18:06.702Z,-1.50
2023-03-02T04:20:34.792Z,-1.70
2023-03-02T04:23:02.933Z,-1.80
2023-03-02T04:25:32.501Z,-1.80
2023-03-02T04:28:18.298Z,-1.70
2023-03-02T04:30:57.892Z,-1.70
2023-03-02T04:33:26.279Z,-1.70
2023-03-02T04:35:55.182Z,-1.60
2023-03-02T04:38:24.318Z,-1.60
2023-03-02T04:40:52.531Z,-1.60
2023-03-02T04:43:20.725Z,-1.70
2023-03-02T04:46:22.056Z,-1.80
2023-03-02T04:48:52.785Z,-1.90
2023-03-02T04:51:36.153Z,-1.90
2023-03-02T04:54:10.400Z,-1.80
2023-03-02T04:56:38.617Z,-1.90
2023-03-02T04:59:09.082Z,-1.80
2023-03-02T05:01:38.606Z,-1.70
2023-03-02T05:04:06.768Z,-1.60
2023-03-02T05:06:35.218Z,-1.50
2023-03-02T05:09:04.749Z,-1.50
2023-03-02T05:11:34.619Z,-1.80
2023-03-02T05:14:05.236Z,-2.10
2023-03-02T05:16:35.868Z,-2.00
2023-03-02T05:19:18.493Z,-2.00
2023-03-02T05:21:47.318Z,-2.20
2023-03-02T05:24:15.669Z,-1.90
2023-03-02T05:26:43.883Z,-1.90
2023-03-02T05:29:12.500Z,-2.00
2023-03-02T05:31:43.825Z,-2.20
2023-03-02T05:34:22.198Z,-2.50
2023-03-02T05:36:53.180Z,-2.40
2023-03-02T05:39:21.301Z,-2.40
2023-03-02T05:41:49.618Z,-2.30
2023-03-02T05:44:19.757Z,-2.30
2023-03-02T05:46:49.542Z,-2.20
2023-03-02T05:49:19.816Z,-2.40
2023-03-02T05:51:48.005Z,-2.40
2023-03-02T05:54:16.549Z,-2.50
2023-03-02T05:56:44.843Z,-2.70
2023-03-02T05:59:13.111Z,-2.60
2023-03-02T06:01:41.394Z,-2.50
2023-03-02T06:04:12.245Z,-2.50
2023-03-02T06:06:42.367Z,-2.50
2023-03-02T06:09:10.606Z,-2.40
2023-03-02T06:11:38.954Z,-2.30
2023-03-02T06:14:07.698Z,-2.20
2023-03-02T06:16:37.250Z,-2.30
2023-03-02T06:19:06.009Z,-2.20
2023-03-02T06:21:34.428Z,-2.40
2023-03-02T06:24:04.592Z,-2.40
2023-03-02T06:26:33.103Z,-2.30
2023-03-02T06:29:01.591Z,-2.30
2023-03-02T06:31:30.504Z,-2.10
2023-03-02T06:33:59.151Z,-2.30
2023-03-02T06:36:27.774Z,-2.10
2023-03-02T06:38:56.353Z,-2.10
2023-03-02T06:41:25.937Z,-2.00
2023-03-02T06:43:54.263Z,-2.20
2023-03-02T06:46:22.945Z,-2.00
2023-03-02T06:48:51.272Z,-1.80
2023-03-02T06:51:19.659Z,-1.60
2023-03-02T06:53:48.557Z,-1.50
2023-03-02T06:56:16.823Z,-1.50
2023-03-02T06:58:46.408Z,-1.40
2023-03-02T07:01:17.693Z,-1.20
2023-03-02T07:03:46.155Z,-1.10
2023-03-02T07:06:15.816Z,-1.20
2023-03-02T07:08:44.209Z,-1.20
2023-03-02T07:11:14.357Z,-1.00
2023-03-02T07:13:42.708Z,-0.90
2023-03-02T07:16:14.258Z,-0.90
2023-03-02T07:18:43.154Z,-0.90
2023-03-02T07:21:12.901Z,-0.80
2023-03-02T07:23:43.332Z,-0.60
2023-03-02T07:26:12.947Z,-0.50
2023-03-02T07:28:43.404Z,-0.40
2023-03-02T07:31:16.883Z,-0.40
2023-03-02T07:33:45.186Z,-0.30
2023-03-02T07:36:14.017Z,-0.10
2023-03-02T07:38:42.342Z,0.00
2023-03-02T07:41:12.347Z,0.20
2023-03-02T07:43:40.688Z,0.20
2023-03-02T07:46:08.996Z,0.20
2023-03-02T07:48:38.634Z,0.30
2023-03-02T07:51:07.992Z,0.30
2023-03-02T07:53:36.946Z,0.60
2023-03-02T07:56:09.136Z,0.60
2023-03-02T07:58:38.414Z,0.80
2023-03-02T08:01:06.927Z,0.90
2023-03-02T08:03:36.095Z,1.10
2023-03-02T08:06:08.466Z,1.30
2023-03-02T08:08:37.185Z,1.50
2023-03-02T08:11:07.183Z,1.70
2023-03-02T08:13:38.463Z,1.80
2023-03-02T08:16:09.399Z,2.00
2023-03-02T08:18:39.511Z,2.10
2023-03-02T08:21:15.466Z,2.30
2023-03-02T08:23:44.349Z,2.30
2023-03-02T08:26:14.744Z,2.40
2023-03-02T08:28:44.827Z,2.40
2023-03-02T08:31:14.446Z,2.50
2023-03-02T08:33:43.228Z,2.70
2023-03-02T08:36:15.499Z,2.90
2023-03-02T08:38:44.343Z,3.00
2023-03-02T08:41:14.202Z,3.30
2023-03-02T08:43:43.218Z,3.30
2023-03-02T08:46:13.242Z,3.30
2023-03-02T08:48:42.264Z,3.40
2023-03-02T08:51:12.881Z,3.60
2023-03-02T08:53:45.091Z,3.70
2023-03-02T08:56:18.477Z,3.80
2023-03-02T08:58:47.902Z,4.00
2023-03-02T09:01:18.808Z,4.00
2023-03-02T09:03:50.597Z,4.10
2023-03-02T09:06:21.090Z,4.10
2023-03-02T09:08:50.820Z,4.20
2023-03-02T09:11:19.750Z,4.20
2023-03-02T09:13:48.489Z,4.30
2023-03-02T09:16:17.457Z,4.50
2023-03-02T09:18:45.845Z,4.60
2023-03-02T09:21:14.229Z,4.50
2023-03-02T09:23:43.118Z,4.50
2023-03-02T09:26:12.798Z,4.50
2023-03-02T09:28:44.184Z,4.80
2023-03-02T09:31:13.541Z,4.10
2023-03-02T09:33:41.980Z,4.10
2023-03-02T09:36:12.754Z,4.10
2023-03-02T09:38:41.096Z,4.30
2023-03-02T09:41:35.259Z,4.20
2023-03-02T09:44:12.894Z,4.40
2023-03-02T09:46:47.782Z,4.70
2023-03-02T09:49:27.098Z,5.00
2023-03-02T09:52:11.699Z,5.10
2023-03-02T09:54:41.672Z,4.90
2023-03-02T09:57:23.009Z,4.80
2023-03-02T09:59:59.837Z,4.70
2023-03-02T10:02:37.246Z,4.80
2023-03-02T10:05:14.428Z,5.00
2023-03-02T10:07:42.770Z,5.30
2023-03-02T10:10:24.068Z,5.60
2023-03-02T10:13:11.975Z,5.20
2023-03-02T10:15:46.992Z,5.70
2023-03-02T10:18:21.843Z,6.00
2023-03-02T10:20:55.493Z,6.10
2023-03-02T10:23:40.961Z,6.30
2023-03-02T10:26:17.627Z,6.30
2023-03-02T10:28:51.930Z,6.10
2023-03-02T10:31:28.301Z,5.90
2023-03-02T10:33:57.101Z,6.20
2023-03-02T10:36:27.445Z,6.30
2023-03-02T10:38:56.814Z,6.20
2023-03-02T10:41:29.894Z,6.50
2023-03-02T10:44:05.501Z,6.60
2023-03-02T10:46:42.201Z,6.20
2023-03-02T10:49:27.693Z,5.90
2023-03-02T10:52:01.919Z,6.10
2023-03-02T10:54:35.310Z,6.20
2023-03-02T10:57:05.666Z,6.80
2023-03-02T10:59:44.912Z,7.10
2023-03-02T11:02:22.836Z,6.40
2023-03-02T11:04:57.423Z,6.60
2023-03-02T11:07:27.799Z,6.70
2023-03-02T11:10:03.920Z,7.10
2023-03-02T11:12:33.028Z,7.30
2023-03-02T11:15:22.785Z,7.50
2023-03-02T11:17:55.327Z,7.50
2023-03-02T11:20:26.969Z,7.20
2023-03-02T11:23:03.703Z,7.10
2023-03-02T11:25:37.549Z,6.90
2023-03-02T11:28:13.651Z,7.50
2023-03-02T11:30:48.712Z,7.80
2023-03-02T11:33:22.016Z,7.70
2023-03-02T11:35:54.922Z,8.00
2023-03-02T11:38:27.472Z,8.30
2023-03-02T11:40:58.499Z,8.60
2023-03-02T11:43:27.962Z,8.30
2023-03-02T11:46:00.556Z,8.60
2023-03-02T11:48:34.744Z,8.70
2023-03-02T11:51:05.725Z,9.10
2023-03-02T11:53:43.413Z,8.70
2023-03-02T11:56:11.848Z,8.90
2023-03-02T11:58:40.797Z,8.70
2023-03-02T12:01:25.876Z,9.10
2023-03-02T12:03:55.930Z,9.50
2023-03-02T12:06:30.662Z,9.70
2023-03-02T12:09:30.910Z,9.30
2023-03-02T12:12:01.867Z,9.90
2023-03-02T12:14:38.878Z,10.20
2023-03-02T12:17:31.225Z,10.10
2023-03-02T12:20:23.467Z,9.70
2023-03-02T12:22:52.109Z,9.90
2023-03-02T12:25:38.088Z,9.90
2023-03-02T12:28:06.858Z,9.20
2023-03-02T12:30:35.178Z,8.80
2023-03-02T12:33:18.165Z,8.90
2023-03-02T12:35:48.578Z,8.50
2023-03-02T12:38:30.966Z,8.60
2023-03-02T12:41:22.641Z,8.70
2023-03-02T12:44:04.375Z,9.00
2023-03-02T12:46:34.317Z,8.80
2023-03-02T12:49:35.371Z,9.10
2023-03-02T12:52:17.979Z,8.90
2023-03-02T12:54:46.228Z,9.30
2023-03-02T12:57:19.230Z,9.90
2023-03-02T12:59:53.535Z,9.20
2023-03-02T13:02:26.454Z,8.90
2023-03-02T13:04:57.905Z,9.80
2023-03-02T13:07:28.964Z,9.00
2023-03-02T13:09:59.741Z,9.30
2023-03-02T13:12:29.713Z,10.20
2023-03-02T13:15:00.011Z,10.70
2023-03-02T13:17:31.339Z,10.50
2023-03-02T13:20:03.333Z,10.60
2023-03-02T13:22:32.199Z,10.70
2023-03-02T13:25:03.796Z,11.10
2023-03-02T13:27:34.001Z,9.50
2023-03-02T13:30:11.310Z,10.00
2023-03-02T13:32:43.185Z,9.40
2023-03-02T13:35:25.550Z,9.40
2023-03-02T13:38:01.694Z,9.60
2023-03-02T13:40:39.220Z,9.80
2023-03-02T13:43:22.552Z,10.00
2023-03-02T13:45:55.654Z,10.70
2023-03-02T13:48:24.958Z,10.50
2023-03-02T13:50:57.472Z,10.80
2023-03-02T13:53:26.664Z,10.90
2023-03-02T13:55:56.252Z,11.20
2023-03-02T13:58:26.490Z,11.70
2023-03-02T14:00:58.087Z,12.20
2023-03-02T14:03:29.437Z,12.50
2023-03-02T14:06:00.562Z,12.80
2023-03-02T14:08:29.423Z,12.60
2023-03-02T14:10:59.577Z,12.80
2023-03-02T14:13:34.236Z,12.60
2023-03-02T14:16:02.625Z,13.00
2023-03-02T14:18:37.206Z,13.30
2023-03-02T14:21:08.004Z,13.40
2023-03-02T14:23:36.318Z,13.00
2023-03-02T14:26:07.671Z,12.50
2023-03-02T14:28:36.753Z,11.90
2023-03-02T14:31:04.990Z,11.10
2023-03-02T14:33:34.692Z,10.50
2023-03-02T14:36:03.942Z,10.30
2023-03-02T14:38:34.092Z,10.00
2023-03-02T14:41:02.404Z,9.80
2023-03-02T14:43:30.768Z,9.50
2023-03-02T14:45:59.936Z,9.40
2023-03-02T14:48:28.437Z,9.30
2023-03-02T14:50:59.687Z,9.00
2023-03-02T14:53:31.732Z,9.10
2023-03-02T14:56:07.083Z,9.10
2023-03-02T14:58:36.075Z,9.00
2023-03-02T15:01:05.446Z,8.90
2023-03-02T15:03:33.790Z,8.90
2023-03-02T15:06:03.748Z,8.90
2023-03-02T15:08:35.374Z,8.70
2023-03-02T15:11:05.022Z,8.80
2023-03-02T15:13:33.248Z,8.90
2023-03-02T15:16:01.640Z,9.00
2023-03-02T15:18:30.203Z,9.00
2023-03-02T15:20:58.556Z,8.80
2023-03-02T15:23:27.176Z,8.80
2023-03-02T15:26:00.632Z,8.60
2023-03-02T15:28:31.406Z,8.60
2023-03-02T15:31:07.270Z,8.60
2023-03-02T15:33:35.619Z,8.40
2023-03-02T15:36:06.359Z,8.30
2023-03-02T15:38:35.648Z,8.20
2023-03-02T15:41:06.749Z,8.10
2023-03-02T15:43:36.340Z,8.10
2023-03-02T15:46:05.581Z,8.00
2023-03-02T15:48:34.720Z,7.80
2023-03-02T15:51:05.333Z,7.70
2023-03-02T15:53:37.913Z,7.50
2023-03-02T15:56:07.849Z,7.50
2023-03-02T15:58:37.893Z,7.40
2023-03-02T16:01:09.655Z,7.30
2023-03-02T16:03:38.530Z,7.30
2023-03-02T16:06:08.722Z,7.20
2023-03-02T16:08:37.131Z,7.10
2023-03-02T16:11:08.047Z,7.10
2023-03-02T16:13:37.701Z,7.10
2023-03-02T16:16:07.340Z,7.10
2023-03-02T16:18:35.638Z,6.90
2023-03-02T16:21:04.039Z,6.80
2023-03-02T16:23:35.411Z,6.70
2023-03-02T16:26:10.865Z,6.60
2023-03-02T16:28:41.224Z,6.50
2023-03-02T16:31:12.333Z,6.40
2023-03-02T16:33:42.122Z,6.20
2023-03-02T16:36:11.474Z,6.20
2023-03-02T16:38:40.035Z,6.20
2023-03-02T16:41:14.436Z,6.00
2023-03-02T16:43:47.388Z,5.90
2023-03-02T16:46:16.161Z,5.80
2023-03-02T16:48:45.509Z,5.70
2023-03-02T16:51:14.266Z,5.70
2023-03-02T16:53:43.152Z,5.50
2023-03-02T16:56:12.954Z,5.50
2023-03-02T16:58:45.813Z,5.40
2023-03-02T17:01:16.979Z,5.50
2023-03-02T17:03:46.065Z,5.40
2023-03-02T17:06:15.996Z,5.40
2023-03-02T17:08:44.437Z,5.20
2023-03-02T17:11:12.619Z,5.20
2023-03-02T17:13:41.388Z,5.10
2023-03-02T17:16:11.737Z,4.90
2023-03-02T17:18:41.154Z,4.80
2023-03-02T17:21:09.640Z,4.50
2023-03-02T17:23:38.095Z,4.20
2023-03-02T17:26:06.682Z,4.20
2023-03-02T17:28:35.430Z,3.80
2023-03-02T17:31:04.562Z,3.70
2023-03-02T17:33:34.730Z,3.50
2023-03-02T17:36:07.364Z,3.60
2023-03-02T17:38:35.678Z,3.50
2023-03-02T17:41:04.897Z,3.40
2023-03-02T17:43:34.566Z,3.60
2023-03-02T17:46:11.187Z,3.70
2023-03-02T17:48:41.748Z,3.60
2023-03-02T17:51:11.770Z,3.70
2023-03-02T17:53:40.360Z,3.70
2023-03-02T17:56:09.291Z,3.60
2023-03-02T17:58:44.786Z,3.40
2023-03-02T18:01:15.852Z,3.10
2023-03-02T18:03:46.073Z,3.10
2023-03-02T18:06:15.698Z,3.10
2023-03-02T18:08:44.011Z,3.10
2023-03-02T18:11:12.429Z,2.90
2023-03-02T18:13:41.067Z,2.70
2023-03-02T18:16:09.887Z,2.80
2023-03-02T18:18:38.322Z,2.70
2023-03-02T18:21:08.578Z,2.70
2023-03-02T18:23:36.937Z,2.50
2023-03-02T18:26:05.335Z,2.40
2023-03-02T18:28:33.664Z,2.40
2023-03-02T18:31:02.167Z,2.40
2023-03-02T18:33:30.762Z,2.40
2023-03-02T18:36:00.635Z,2.40
2023-03-02T18:38:31.057Z,2.20
2023-03-02T18:41:00.780Z,2.30
2023-03-02T18:43:30.285Z,2.20
2023-03-02T18:45:58.665Z,2.30
2023-03-02T18:48:26.877Z,2.20
2023-03-02T18:50:55.431Z,2.20
2023-03-02T18:53:24.364Z,2.10
2023-03-02T18:55:55.625Z,2.20
2023-03-02T18:58:25.308Z,1.90
2023-03-02T19:00:54.809Z,2.00
2023-03-02T19:03:24.798Z,1.90
2023-03-02T19:05:57.603Z,1.90
2023-03-02T19:08:27.890Z,1.70
2023-03-02T19:10:57.597Z,1.40
2023-03-02T19:13:26.313Z,1.60
2023-03-02T19:15:55.555Z,1.70
2023-03-02T19:18:26.175Z,1.80
2023-03-02T19:20:55.814Z,1.80
2023-03-02T19:23:24.506Z,1.60
2023-03-02T19:25:53.092Z,1.50
2023-03-02T19:28:22.770Z,1.50
2023-03-02T19:30:51.926Z,1.60
2023-03-02T19:33:25.022Z,1.60
2023-03-02T19:35:53.460Z,1.70
2023-03-02T19:38:22.644Z,1.80
2023-03-02T19:40:51.425Z,1.60
2023-03-02T19:43:20.382Z,1.70
2023-03-02T19:45:50.126Z,1.80
2023-03-02T19:48:18.496Z,1.90
2023-03-02T19:50:47.030Z,1.90
2023-03-02T19:53:17.112Z,1.90
2023-03-02T19:55:45.935Z,1.90
2023-03-02T19:58:17.348Z,1.90
2023-03-02T20:00:46.219Z,1.90
2023-03-02T20:03:15.975Z,1.80
2023-03-02T20:05:44.732Z,1.80
2023-03-02T20:08:13.358Z,1.90
2023-03-02T20:10:44.627Z,1.90
2023-03-02T20:13:13.534Z,1.90
2023-03-02T20:15:46.177Z,1.90
2023-03-02T20:18:18.735Z,1.70
2023-03-02T20:20:48.597Z,1.70
2023-03-02T20:23:17.812Z,1.40
2023-03-02T20:25:48.237Z,1.50
2023-03-02T20:28:18.744Z,1.60
2023-03-02T20:30:49.931Z,1.30
2023-03-02T20:33:25.743Z,1.10
2023-03-02T20:35:54.914Z,1.20
2023-03-02T20:38:45.664Z,1.10
2023-03-02T20:41:41.542Z,1.30
2023-03-02T20:44:21.377Z,1.40
2023-03-02T20:46:53.083Z,1.40
2023-03-02T20:49:39.215Z,1.50
2023-03-02T20:52:33.286Z,1.60
2023-03-02T20:55:07.689Z,1.50
2023-03-02T20:58:14.963Z,1.40
2023-03-02T21:00:48.676Z,1.30
2023-03-02T21:03:19.088Z,1.20
2023-03-02T21:05:53.510Z,1.30
2023-03-02T21:08:24.660Z,1.30
2023-03-02T21:10:53.066Z,1.40
2023-03-02T21:13:22.473Z,1.30
2023-03-02T21:15:51.801Z,1.30
2023-03-02T21:18:20.198Z,1.50
2023-03-02T21:20:50.043Z,1.20
2023-03-02T21:23:18.324Z,1.00
2023-03-02T21:25:47.419Z,0.90
2023-03-02T21:28:15.959Z,1.00
2023-03-02T21:30:44.771Z,0.60
2023-03-02T21:33:13.596Z,0.60
2023-03-02T21:35:41.995Z,0.70
2023-03-02T21:38:12.234Z,0.80
2023-03-02T21:40:45.955Z,0.80
2023-03-02T21:43:16.090Z,0.60
2023-03-02T21:45:44.403Z,0.90
2023-03-02T21:48:14.933Z,1.00
2023-03-02T21:50:43.642Z,0.70
2023-03-02T21:53:13.302Z,0.40
2023-03-02T21:55:42.460Z,0.30
2023-03-02T21:58:14.730Z,0.60
2023-03-02T22:00:43.102Z,0.90
2023-03-02T22:03:11.380Z,0.60
2023-03-02T22:05:40.518Z,0.80
2023-03-02T22:08:09.008Z,0.90
2023-03-02T22:10:42.779Z,0.70
2023-03-02T22:13:23.008Z,0.50
2023-03-02T22:15:59.689Z,0.60
2023-03-02T22:18:29.520Z,0.30
2023-03-02T22:24:29.128Z,0.30
2023-03-02T22:27:03.204Z,0.30
2023-03-02T22:29:42.141Z,0.40
2023-03-02T22:32:30.149Z,0.60
2023-03-02T22:35:34.064Z,0.70
2023-03-02T22:38:08.614Z,0.50
2023-03-02T22:40:37.048Z,0.70
2023-03-02T22:43:18.584Z,0.70
2023-03-02T22:45:47.912Z,0.80
2023-03-02T22:48:18.221Z,0.90
2023-03-02T22:50:47.956Z,0.80
2023-03-02T22:53:25.412Z,0.80
2023-03-02T22:56:00.113Z,0.90
2023-03-02T22:58:45.795Z,0.80
2023-03-02T23:01:21.703Z,0.60
2023-03-02T23:03:52.159Z,0.70
2023-03-02T23:06:29.833Z,0.60
2023-03-02T23:09:03.130Z,0.70
2023-03-02T23:11:47.375Z,0.80
2023-03-02T23:14:24.315Z,0.90
2023-03-02T23:16:55.744Z,0.80
2023-03-02T23:19:24.492Z,1.00
2023-03-02T23:21:56.450Z,1.00
2023-03-02T23:24:25.901Z,0.90
2023-03-02T23:27:04.404Z,1.00
2023-03-02T23:30:03.353Z,1.00
2023-03-02T23:32:40.465Z,1.00
2023-03-02T23:35:20.418Z,0.80
2023-03-02T23:37:59.535Z,1.00
2023-03-02T23:40:36.522Z,1.10
2023-03-02T23:43:06.272Z,0.90
2023-03-02T23:45:35.872Z,1.00
2023-03-02T23:48:04.328Z,0.90
2023-03-02T23:50:32.664Z,0.80
2023-03-02T23:53:01.283Z,0.70
2023-03-02T23:55:29.831Z,0.70
